Time;durP1;ratioP1;P1;durP2;ratioP2;P2;SDS_P1;SDS_P2;PMS_P1;PMS_P2;Temp;Humidity;BMP_temperature;BMP_pressure;BME280_temperature;BME280_humidity;BME280_pressure;Samples;Min_cycle;Max_cycle;Signal;HPM_P1;HPM_P2
2024/02/01 00:02:09;;;;;;;0.93;0.50;;;22.30;43.00;;;;;;5134819;27;20046;-35
2024/02/01 00:04:35;;;;;;;0.30;0.30;;;22.30;43.10;;;;;;5134655;27;20042;-33
2024/02/01 00:07:02;;;;;;;0.57;0.50;;;22.30;43.00;;;;;;5132021;27;20055;-34
2024/02/01 00:09:28;;;;;;;0.32;0.30;;;22.30;42.90;;;;;;5135543;27;20027;-32
2024/02/01 00:11:54;;;;;;;0.60;0.50;;;22.30;43.00;;;;;;5133117;27;20091;-32
2024/02/01 00:14:20;;;;;;;0.30;0.30;;;22.30;43.00;;;;;;5137681;27;20024;-36
2024/02/01 00:16:46;;;;;;;0.63;0.50;;;22.30;43.00;;;;;;5128649;27;20032;-36
2024/02/01 00:19:12;;;;;;;0.88;0.35;;;22.20;43.00;;;;;;5118576;27;20030;-38
2024/02/01 00:21:39;;;;;;;0.60;0.50;;;22.30;43.20;;;;;;5133262;27;20057;-34
2024/02/01 00:24:05;;;;;;;0.40;0.30;;;22.30;43.10;;;;;;5134912;27;20038;-33
2024/02/01 00:26:31;;;;;;;0.70;0.50;;;22.30;43.10;;;;;;5128716;27;20089;-32
2024/02/01 00:28:57;;;;;;;0.77;0.50;;;22.30;43.10;;;;;;5134756;27;20095;-34
2024/02/01 00:31:24;;;;;;;1.02;0.40;;;22.20;43.00;;;;;;5137205;27;20032;-35
2024/02/01 00:33:50;;;;;;;1.95;0.35;;;22.20;43.00;;;;;;5131997;27;20031;-35
2024/02/01 00:36:16;;;;;;;0.82;0.57;;;22.20;43.20;;;;;;5134197;27;20034;-31
2024/02/01 00:38:42;;;;;;;1.58;0.40;;;22.20;43.20;;;;;;5134486;27;20039;-32
2024/02/01 00:41:08;;;;;;;0.75;0.40;;;22.20;43.20;;;;;;5135599;27;20027;-33
2024/02/01 00:43:34;;;;;;;0.40;0.40;;;22.30;43.20;;;;;;5134284;27;20031;-34
2024/02/01 00:46:00;;;;;;;0.60;0.60;;;22.20;43.20;;;;;;5132967;27;20031;-34
2024/02/01 00:48:27;;;;;;;0.35;0.30;;;22.20;43.10;;;;;;5136177;27;20038;-38
2024/02/01 00:50:53;;;;;;;1.65;0.35;;;22.20;43.20;;;;;;5117736;27;20538;-33
2024/02/01 00:53:19;;;;;;;5.65;1.42;;;22.20;43.30;;;;;;5131366;27;20051;-32
2024/02/01 00:55:45;;;;;;;14.95;4.03;;;22.20;43.20;;;;;;5132313;27;20107;-36
2024/02/01 00:58:11;;;;;;;26.45;7.47;;;22.20;43.20;;;;;;5133277;27;20037;-36
2024/02/01 01:00:37;;;;;;;35.00;7.43;;;22.20;43.20;;;;;;5133312;27;20027;-34
2024/02/01 01:03:04;;;;;;;26.75;7.57;;;22.10;43.10;;;;;;5134934;27;20024;-31
2024/02/01 01:05:30;;;;;;;22.75;6.18;;;22.10;43.10;;;;;;5136798;27;20024;-36
2024/02/01 01:07:57;;;;;;;16.73;4.78;;;22.10;43.40;;;;;;5127529;27;20047;-34
2024/02/01 01:10:23;;;;;;;10.52;3.38;;;22.10;43.80;;;;;;5133667;27;20038;-38
2024/02/01 01:12:49;;;;;;;12.80;3.70;;;22.20;43.70;;;;;;5133279;27;20099;-34
2024/02/01 01:15:17;;;;;;;8.95;2.95;;;22.20;43.60;;;;;;5129296;27;20027;-36
2024/02/01 01:17:43;;;;;;;9.38;2.70;;;22.10;43.60;;;;;;5127895;27;20023;-34
2024/02/01 01:20:10;;;;;;;15.15;2.75;;;22.10;43.60;;;;;;5129170;27;20099;-35
2024/02/01 01:22:36;;;;;;;5.68;2.00;;;22.10;43.60;;;;;;5111833;27;20099;-34
2024/02/01 01:25:02;;;;;;;4.57;1.90;;;22.10;43.70;;;;;;5134257;27;20744;-38
2024/02/01 01:27:28;;;;;;;5.60;1.63;;;22.10;43.60;;;;;;5127515;27;20035;-36
2024/02/01 01:29:55;;;;;;;5.18;1.80;;;22.10;43.60;;;;;;5133449;27;20034;-34
2024/02/01 01:32:21;;;;;;;4.25;1.55;;;22.10;43.50;;;;;;5107748;28;20042;-32
2024/02/01 01:34:47;;;;;;;4.60;1.52;;;22.10;43.50;;;;;;5125917;27;20031;-33
2024/02/01 01:37:13;;;;;;;3.20;1.30;;;22.00;43.40;;;;;;5139941;27;20089;-33
2024/02/01 01:39:39;;;;;;;3.58;1.55;;;22.00;43.50;;;;;;5137685;27;20034;-38
2024/02/01 01:42:05;;;;;;;4.82;1.38;;;22.00;43.50;;;;;;5139136;27;20025;-31
2024/02/01 01:44:32;;;;;;;2.38;1.02;;;22.10;43.50;;;;;;5132902;27;20038;-31
2024/02/01 01:46:58;;;;;;;1.58;1.08;;;22.10;43.50;;;;;;5130205;27;20042;-36
2024/02/01 01:49:24;;;;;;;2.22;1.45;;;22.00;43.50;;;;;;5133914;27;20460;-34
2024/02/01 01:51:51;;;;;;;2.47;1.10;;;22.00;43.50;;;;;;5132707;27;20036;-34
2024/02/01 01:54:19;;;;;;;1.90;1.13;;;22.00;43.60;;;;;;5114805;28;20035;-37
2024/02/01 01:56:46;;;;;;;1.90;1.08;;;22.00;43.60;;;;;;5131279;28;20829;-35
2024/02/01 01:59:12;;;;;;;1.30;0.85;;;22.00;43.60;;;;;;5132933;28;20034;-34
2024/02/01 02:01:39;;;;;;;1.85;1.00;;;22.00;43.50;;;;;;5113247;28;20035;-36
2024/02/01 02:04:07;;;;;;;1.23;0.80;;;22.00;43.50;;;;;;5109862;28;20027;-36
2024/02/01 02:06:33;;;;;;;1.92;1.02;;;22.00;43.50;;;;;;5134214;28;20043;-36
2024/02/01 02:08:59;;;;;;;2.63;0.95;;;21.90;43.60;;;;;;5111946;28;20037;-33
2024/02/01 02:11:26;;;;;;;1.60;1.00;;;21.90;43.60;;;;;;5135228;27;20127;-34
2024/02/01 02:13:52;;;;;;;1.38;1.10;;;22.00;43.70;;;;;;5117216;28;20031;-39
2024/02/01 02:16:19;;;;;;;1.42;0.90;;;22.00;43.50;;;;;;5131828;27;20035;-35
2024/02/01 02:18:45;;;;;;;2.67;1.08;;;22.00;43.60;;;;;;5127066;28;20103;-34
2024/02/01 02:21:12;;;;;;;1.92;1.20;;;21.90;43.50;;;;;;5134940;28;20086;-34
2024/02/01 02:23:38;;;;;;;1.08;0.85;;;21.90;43.60;;;;;;5121547;28;20087;-31
2024/02/01 02:26:07;;;;;;;1.98;1.08;;;21.90;43.70;;;;;;5127691;28;20772;-36
2024/02/01 02:28:38;;;;;;;2.33;1.02;;;21.90;43.70;;;;;;5140376;27;20038;-36
2024/02/01 02:31:07;;;;;;;0.95;0.73;;;21.90;43.70;;;;;;5130480;27;20028;-35
2024/02/01 02:33:33;;;;;;;4.53;1.00;;;21.90;43.60;;;;;;5130180;27;23403;-33
2024/02/01 02:36:00;;;;;;;1.33;1.10;;;21.90;43.80;;;;;;5129963;27;20023;-36
2024/02/01 02:38:26;;;;;;;1.83;1.00;;;21.90;43.80;;;;;;5136797;27;20091;-33
2024/02/01 02:40:52;;;;;;;1.85;0.90;;;21.80;43.80;;;;;;5118541;27;20032;-32
2024/02/01 02:43:18;;;;;;;4.25;1.10;;;21.90;43.80;;;;;;5135794;27;20034;-32
2024/02/01 02:45:44;;;;;;;1.13;0.80;;;21.90;43.80;;;;;;5130102;27;20133;-36
2024/02/01 02:48:11;;;;;;;1.10;0.88;;;21.90;43.70;;;;;;5133177;27;20069;-32
2024/02/01 02:50:37;;;;;;;1.55;0.90;;;21.90;43.80;;;;;;5132630;27;20428;-34
2024/02/01 02:53:03;;;;;;;1.75;1.10;;;21.80;43.70;;;;;;5132045;27;20047;-32
2024/02/01 02:55:29;;;;;;;1.33;0.90;;;21.80;43.80;;;;;;5132687;27;20023;-31
2024/02/01 02:57:55;;;;;;;1.30;1.15;;;21.90;43.80;;;;;;5131171;27;20027;-34
2024/02/01 03:00:22;;;;;;;1.60;1.05;;;21.90;43.70;;;;;;5131991;27;20035;-33
2024/02/01 03:02:48;;;;;;;1.10;0.90;;;21.90;43.80;;;;;;5132607;27;20031;-34
2024/02/01 03:05:16;;;;;;;1.97;0.90;;;21.80;43.70;;;;;;5116806;27;20060;-32
2024/02/01 03:07:43;;;;;;;1.48;0.90;;;21.80;43.80;;;;;;5137065;27;20107;-35
2024/02/01 03:10:10;;;;;;;1.88;1.02;;;21.80;43.80;;;;;;5136288;27;20089;-34
2024/02/01 03:12:36;;;;;;;1.38;0.98;;;21.80;43.80;;;;;;5118671;27;20062;-36
2024/02/01 03:15:03;;;;;;;1.25;0.90;;;21.80;43.80;;;;;;5110877;27;20024;-32
2024/02/01 03:17:29;;;;;;;;;;;21.80;43.70;;;;;;5136237;27;20035;-34
2024/02/01 03:19:55;;;;;;;1.38;0.90;;;21.80;43.80;;;;;;5130603;27;20447;-35
2024/02/01 03:22:24;;;;;;;1.23;0.88;;;21.80;43.80;;;;;;5133000;27;20082;-34
2024/02/01 03:24:58;;;;;;;2.00;0.70;;;21.80;43.90;;;;;;5133722;27;20030;-37
2024/02/01 03:27:25;;;;;;;1.23;0.90;;;21.80;43.80;;;;;;5134272;27;20036;-35
2024/02/01 03:29:51;;;;;;;1.35;0.73;;;21.80;43.80;;;;;;5142440;27;20087;-39
2024/02/01 03:32:18;;;;;;;1.67;0.80;;;21.80;43.80;;;;;;5139722;27;20071;-35
2024/02/01 03:34:44;;;;;;;1.15;0.77;;;21.80;43.80;;;;;;5141456;27;20102;-34
2024/02/01 03:37:14;;;;;;;2.40;0.60;;;21.70;43.70;;;;;;5109230;27;20062;-34
2024/02/01 03:39:43;;;;;;;1.35;0.70;;;21.70;43.80;;;;;;5142912;27;20023;-31
2024/02/01 03:42:09;;;;;;;1.00;0.90;;;21.80;43.80;;;;;;5131706;27;20111;-34
2024/02/01 03:44:39;;;;;;;1.85;1.05;;;21.80;43.80;;;;;;5098711;28;20054;-34
2024/02/01 03:47:11;;;;;;;1.00;0.80;;;21.80;43.70;;;;;;5137605;27;20070;-32
2024/02/01 03:49:40;;;;;;;1.30;1.00;;;21.80;43.70;;;;;;5133983;27;20027;-30
2024/02/01 03:52:10;;;;;;;1.05;0.60;;;21.70;43.80;;;;;;5129306;27;20047;-32
2024/02/01 03:54:37;;;;;;;1.25;0.80;;;21.70;43.80;;;;;;5136222;27;20035;-33
2024/02/01 03:57:03;;;;;;;1.13;0.77;;;21.70;43.70;;;;;;5130471;27;20035;-35
2024/02/01 03:59:31;;;;;;;1.50;0.90;;;21.80;43.80;;;;;;5136102;27;20508;-36
2024/02/01 04:02:03;;;;;;;0.70;0.70;;;21.80;43.80;;;;;;5129731;27;20054;-33
2024/02/01 04:04:33;;;;;;;0.90;0.70;;;21.70;43.80;;;;;;5139955;27;20236;-33
2024/02/01 04:06:59;;;;;;;1.33;0.80;;;21.70;43.80;;;;;;5138146;27;20043;-31
2024/02/01 04:09:25;;;;;;;0.90;0.80;;;21.70;43.80;;;;;;5120860;27;20115;-34
2024/02/01 04:11:51;;;;;;;0.70;0.68;;;21.70;43.80;;;;;;5131943;27;20650;-36
2024/02/01 04:14:18;;;;;;;0.90;0.70;;;21.80;43.80;;;;;;5132763;27;20046;-34
2024/02/01 04:16:45;;;;;;;0.93;0.75;;;21.70;43.80;;;;;;5127278;27;20091;-36
2024/02/01 04:19:12;;;;;;;1.02;0.70;;;21.70;43.70;;;;;;5130952;27;20037;-34
2024/02/01 04:21:39;;;;;;;0.60;0.60;;;21.70;43.80;;;;;;5126086;27;20028;-35
2024/02/01 04:24:05;;;;;;;0.90;0.60;;;21.70;43.80;;;;;;5127044;27;20026;-31
2024/02/01 04:26:31;;;;;;;0.93;0.73;;;21.70;43.90;;;;;;5126005;27;20038;-33
2024/02/01 04:28:57;;;;;;;1.92;0.57;;;21.70;43.80;;;;;;5126607;27;20065;-32
2024/02/01 04:31:23;;;;;;;1.05;0.57;;;21.70;43.80;;;;;;5126246;27;20053;-35
2024/02/01 04:33:54;;;;;;;0.82;0.75;;;21.70;43.70;;;;;;5125997;27;20035;-34
2024/02/01 04:36:20;;;;;;;0.80;0.60;;;21.70;44.30;;;;;;5124944;27;20557;-34
2024/02/01 04:38:49;;;;;;;1.10;0.50;;;21.60;43.80;;;;;;5128083;27;20023;-33
2024/02/01 04:41:16;;;;;;;3.03;0.60;;;21.70;43.90;;;;;;5122896;27;20089;-35
2024/02/01 04:43:43;;;;;;;2.35;0.60;;;21.70;43.80;;;;;;5139276;27;20039;-31
2024/02/01 04:46:10;;;;;;;0.70;0.60;;;21.70;43.80;;;;;;5133748;27;20134;-34
2024/02/01 04:48:36;;;;;;;;;;;21.70;43.80;;;;;;5134338;27;20026;-36
2024/02/01 04:51:02;;;;;;;0.90;0.60;;;21.70;43.70;;;;;;5137995;27;19946;-33
2024/02/01 04:53:29;;;;;;;1.75;0.70;;;21.60;43.80;;;;;;5137158;27;20106;-32
2024/02/01 04:55:55;;;;;;;0.70;0.50;;;21.60;43.80;;;;;;5132883;27;20023;-30
2024/02/01 04:58:22;;;;;;;1.10;0.60;;;21.70;43.80;;;;;;5135425;27;20089;-35
2024/02/01 05:00:49;;;;;;;0.82;0.60;;;21.70;43.80;;;;;;5142007;27;20031;-36
2024/02/01 05:03:16;;;;;;;0.95;0.70;;;21.70;43.80;;;;;;5139763;27;20039;-36
2024/02/01 05:05:45;;;;;;;5.88;0.70;;;21.60;43.70;;;;;;5137363;27;20035;-31
2024/02/01 05:08:15;;;;;;;1.13;0.57;;;21.60;44.00;;;;;;5138044;27;20604;-33
2024/02/01 05:10:44;;;;;;;1.05;0.68;;;21.60;44.20;;;;;;5121123;27;20024;-31
2024/02/01 05:13:13;;;;;;;0.98;0.60;;;21.70;44.00;;;;;;5136142;27;20059;-33
2024/02/01 05:15:46;;;;;;;1.65;0.52;;;21.70;43.90;;;;;;5137310;27;20066;-31
2024/02/01 05:18:13;;;;;;;1.25;0.57;;;21.70;43.90;;;;;;5137963;27;20031;-33
2024/02/01 05:20:39;;;;;;;1.42;0.60;;;21.70;44.00;;;;;;5137689;27;20116;-32
2024/02/01 05:23:06;;;;;;;2.72;0.60;;;21.60;43.90;;;;;;5144992;27;20035;-33
2024/02/01 05:25:33;;;;;;;1.50;0.50;;;21.60;44.00;;;;;;5139950;27;20056;-33
2024/02/01 05:27:59;;;;;;;0.30;0.30;;;21.60;44.00;;;;;;5140092;27;20035;-30
2024/02/01 05:30:25;;;;;;;0.73;0.63;;;21.70;44.00;;;;;;5137956;27;20364;-31
2024/02/01 05:32:52;;;;;;;7.20;0.60;;;21.70;44.10;;;;;;5138679;27;20061;-33
2024/02/01 05:35:27;;;;;;;3.30;0.50;;;21.60;44.00;;;;;;5126512;27;20024;-38
2024/02/01 05:37:54;;;;;;;0.98;0.60;;;21.60;44.20;;;;;;5130600;27;20034;-32
2024/02/01 05:40:20;;;;;;;;;;;21.60;44.40;;;;;;5129482;27;20035;-34
2024/02/01 05:42:47;;;;;;;0.60;0.60;;;21.60;44.20;;;;;;5131280;27;20373;-35
2024/02/01 05:45:13;;;;;;;1.55;0.50;;;21.70;44.00;;;;;;5128669;27;20027;-34
2024/02/01 05:47:39;;;;;;;0.50;0.45;;;21.60;43.90;;;;;;5111555;28;20582;-33
2024/02/01 05:50:07;;;;;;;2.95;0.70;;;21.60;43.90;;;;;;5122987;27;20035;-31
2024/02/01 05:52:39;;;;;;;;;;;21.60;44.00;;;;;;5116003;27;20054;-32
2024/02/01 05:55:06;;;;;;;0.80;0.70;;;21.50;43.90;;;;;;5116684;28;19915;-33
2024/02/01 05:57:36;;;;;;;1.15;0.60;;;21.60;44.10;;;;;;5116189;28;20067;-33
2024/02/01 06:00:06;;;;;;;1.27;0.75;;;21.70;44.10;;;;;;5117995;28;20039;-32
2024/02/01 06:02:33;;;;;;;0.68;0.57;;;21.80;44.00;;;;;;5099270;28;20031;-33
2024/02/01 06:04:59;;;;;;;1.23;0.80;;;21.80;44.00;;;;;;5111526;28;20032;-32
2024/02/01 06:07:25;;;;;;;0.75;0.50;;;21.90;44.10;;;;;;5118541;28;20318;-35
2024/02/01 06:09:51;;;;;;;1.73;0.70;;;21.90;43.90;;;;;;5112085;28;20024;-34
2024/02/01 06:12:17;;;;;;;1.33;0.60;;;22.10;43.70;;;;;;5115461;27;20070;-31
2024/02/01 06:14:44;;;;;;;1.13;0.73;;;22.30;43.50;;;;;;5121309;27;20024;-34
2024/02/01 06:17:10;;;;;;;1.20;0.55;;;22.30;43.30;;;;;;5128151;27;20028;-36
2024/02/01 06:19:36;;;;;;;1.17;0.68;;;22.30;43.40;;;;;;5130784;27;20055;-34
2024/02/01 06:22:05;;;;;;;0.55;0.52;;;22.30;43.50;;;;;;5128948;27;20039;-33
2024/02/01 06:24:35;;;;;;;0.98;0.57;;;22.30;43.50;;;;;;5134087;27;20455;-37
2024/02/01 06:27:01;;;;;;;0.80;0.50;;;22.30;43.40;;;;;;5107712;27;20778;-34
2024/02/01 06:29:27;;;;;;;0.70;0.57;;;22.50;42.80;;;;;;5125517;27;20042;-35
2024/02/01 06:31:54;;;;;;;1.07;0.70;;;22.60;42.60;;;;;;5127389;27;20434;-34
2024/02/01 06:35:06;;;;;;;0.77;0.52;;;22.60;42.80;;;;;;5128592;27;20027;-35
2024/02/01 06:37:09;;;;;;;1.25;0.60;;;22.50;42.90;;;;;;5105545;27;20065;-35
2024/02/01 06:42:13;;;;;;;0.80;0.75;;;22.50;42.90;;;;;;5128110;27;20031;-36
2024/02/01 06:44:57;;;;;;;0.70;0.60;;;22.60;42.70;;;;;;5111247;27;20020;-34
2024/02/01 06:47:35;;;;;;;1.15;0.63;;;22.70;42.30;;;;;;5118833;27;20053;-35
2024/02/01 06:50:15;;;;;;;2.25;0.73;;;22.80;42.40;;;;;;5115905;27;20030;-30
2024/02/01 06:53:08;;;;;;;0.60;0.60;;;22.80;42.60;;;;;;5134547;27;20088;-36
2024/02/01 06:55:44;;;;;;;1.02;0.68;;;22.70;42.50;;;;;;5076141;28;20056;-33
2024/02/01 06:58:15;;;;;;;0.95;0.70;;;22.70;42.50;;;;;;5074409;28;20037;-34
2024/02/01 07:01:03;;;;;;;0.90;0.47;;;22.70;42.30;;;;;;5077708;28;20036;-33
2024/02/01 07:03:44;;;;;;;1.50;0.50;;;22.90;42.00;;;;;;5061577;28;20028;-38
2024/02/01 07:09:27;;;;;;;0.68;0.50;;;22.90;42.30;;;;;;5017284;28;20257;-33
2024/02/01 07:12:09;;;;;;;0.55;0.50;;;22.90;42.40;;;;;;5020858;28;20025;-35
2024/02/01 07:14:41;;;;;;;2.10;0.60;;;22.90;42.30;;;;;;5010534;28;20617;-34
2024/02/01 07:20:03;;;;;;;1.38;0.70;;;23.00;42.00;;;;;;5011705;28;20121;-32
2024/02/01 07:22:38;;;;;;;0.70;0.45;;;23.00;42.20;;;;;;5010856;28;20042;-31
2024/02/01 07:25:23;;;;;;;0.70;0.50;;;23.00;42.10;;;;;;5008384;28;20038;-33
2024/02/01 07:58:08;;;;;;;0.60;0.45;;;22.60;42.10;;;;;;5130848;27;20038;-37
2024/02/01 08:00:34;;;;;;;0.63;0.57;;;22.50;42.20;;;;;;5130392;27;20024;-37
2024/02/01 08:03:04;;;;;;;1.38;0.73;;;22.60;42.20;;;;;;5134740;27;20030;-35
2024/02/01 08:08:23;;;;;;;1.90;0.45;;;22.60;42.20;;;;;;5109772;27;20119;-34
2024/02/01 08:10:56;;;;;;;0.93;0.67;;;22.50;42.00;;;;;;5134077;27;20123;-33
2024/02/01 08:13:25;;;;;;;0.65;0.60;;;22.40;42.10;;;;;;5133600;27;20340;-31
2024/02/01 08:15:56;;;;;;;0.60;0.50;;;22.40;42.30;;;;;;5129360;27;20052;-31
2024/02/01 08:18:23;;;;;;;0.70;0.63;;;22.40;42.30;;;;;;5131404;27;20039;-31
2024/02/01 08:20:49;;;;;;;0.50;0.50;;;22.40;42.40;;;;;;5130952;27;20027;-36
2024/02/01 08:23:23;;;;;;;2.55;0.60;;;22.40;42.20;;;;;;5132823;27;20055;-35
2024/02/01 08:25:50;;;;;;;0.75;0.60;;;22.30;42.10;;;;;;5130577;27;20027;-33
2024/02/01 08:28:17;;;;;;;0.70;0.50;;;22.20;42.30;;;;;;5131765;27;20175;-32
2024/02/01 08:30:47;;;;;;;0.57;0.45;;;22.20;42.50;;;;;;5128900;27;20023;-34
2024/02/01 08:33:18;;;;;;;0.77;0.65;;;22.20;42.60;;;;;;5128912;27;20077;-31
2024/02/01 08:35:46;;;;;;;0.63;0.40;;;22.20;42.50;;;;;;5134827;27;20034;-34
2024/02/01 08:38:12;;;;;;;;;;;22.20;42.40;;;;;;5136177;27;20031;-33
2024/02/01 08:40:41;;;;;;;0.80;0.68;;;22.20;42.30;;;;;;5134722;27;19907;-32
2024/02/01 08:43:10;;;;;;;0.52;0.40;;;22.20;42.30;;;;;;5133108;27;20388;-30
2024/02/01 08:45:39;;;;;;;0.93;0.65;;;22.10;42.50;;;;;;5131685;27;20046;-32
2024/02/01 08:48:08;;;;;;;0.65;0.60;;;22.00;42.60;;;;;;5131777;27;20035;-35
2024/02/01 08:50:46;;;;;;;0.77;0.50;;;22.10;42.60;;;;;;5132535;27;20073;-36
2024/02/01 08:53:13;;;;;;;0.57;0.57;;;22.10;42.50;;;;;;5137801;27;20050;-32
2024/02/01 08:55:40;;;;;;;1.25;0.75;;;22.10;42.50;;;;;;5130924;27;20114;-34
2024/02/01 08:58:11;;;;;;;0.63;0.63;;;22.00;42.40;;;;;;5131580;27;20032;-36
2024/02/01 09:00:43;;;;;;;0.73;0.50;;;22.00;42.50;;;;;;5134956;27;20049;-33
2024/02/01 09:03:16;;;;;;;0.77;0.63;;;21.90;42.70;;;;;;5133843;27;20024;-33
2024/02/01 09:05:46;;;;;;;0.50;0.50;;;21.90;42.70;;;;;;5131646;27;20032;-32
2024/02/01 09:08:24;;;;;;;0.85;0.50;;;22.00;42.70;;;;;;5137241;27;20039;-38
2024/02/01 09:10:57;;;;;;;0.60;0.50;;;22.00;42.60;;;;;;5136213;27;20665;-31
2024/02/01 09:13:24;;;;;;;0.68;0.52;;;22.00;42.70;;;;;;5124658;27;20773;-32
2024/02/01 09:15:51;;;;;;;0.52;0.52;;;21.90;42.70;;;;;;5114532;27;20057;-35
2024/02/01 09:18:20;;;;;;;1.58;0.70;;;21.90;43.10;;;;;;5116989;27;20027;-34
2024/02/01 09:20:47;;;;;;;4.78;0.68;;;21.90;43.30;;;;;;5130240;27;20090;-33
2024/02/01 09:23:13;;;;;;;14.20;0.68;;;21.90;43.30;;;;;;5114617;27;20029;-35
2024/02/01 09:25:43;;;;;;;5.03;0.80;;;21.90;43.00;;;;;;5132598;27;20027;-31
2024/02/01 09:28:13;;;;;;;8.80;0.70;;;21.90;43.00;;;;;;5129170;27;20380;-34
2024/02/01 09:30:46;;;;;;;9.05;0.90;;;21.90;43.00;;;;;;5133377;27;20037;-30
2024/02/01 09:33:20;;;;;;;2.47;0.60;;;21.80;42.90;;;;;;5112889;27;20046;-34
2024/02/01 09:35:47;;;;;;;3.17;0.70;;;21.80;43.10;;;;;;5128863;27;20042;-33
2024/02/01 09:38:13;;;;;;;1.60;0.55;;;21.80;43.30;;;;;;5110948;27;20023;-31
2024/02/01 09:40:43;;;;;;;0.93;0.60;;;21.90;43.60;;;;;;5128753;27;20054;-31
2024/02/01 09:43:22;;;;;;;1.17;0.68;;;21.80;43.60;;;;;;5128447;27;20051;-32
2024/02/01 09:45:52;;;;;;;1.42;0.70;;;21.80;43.30;;;;;;5132043;27;20035;-33
2024/02/01 09:48:19;;;;;;;2.22;0.60;;;21.70;43.50;;;;;;5131579;27;20080;-36
2024/02/01 09:50:52;;;;;;;11.10;1.38;;;21.80;43.50;;;;;;5132285;27;20027;-36
2024/02/01 09:53:22;;;;;;;4.13;0.70;;;21.80;43.40;;;;;;5129867;27;20078;-34
2024/02/01 09:55:50;;;;;;;4.68;0.70;;;21.80;43.30;;;;;;5131810;27;20058;-32
2024/02/01 09:58:17;;;;;;;;;;;21.80;43.10;;;;;;5115482;27;20058;-31
2024/02/01 10:00:44;;;;;;;2.30;1.05;;;21.70;42.90;;;;;;5130499;27;22460;-32
2024/02/01 10:03:12;;;;;;;7.63;0.65;;;21.70;43.10;;;;;;5131108;27;20039;-35
2024/02/01 10:05:40;;;;;;;2.85;0.80;;;21.70;43.20;;;;;;5123327;27;20438;-33
2024/02/01 10:08:12;;;;;;;;;;;21.80;43.20;;;;;;5130895;27;20040;-31
2024/02/01 10:10:39;;;;;;;1.42;0.70;;;21.80;43.30;;;;;;5128714;27;19925;-35
2024/02/01 10:13:13;;;;;;;1.02;0.65;;;21.70;43.10;;;;;;5139521;27;20031;-35
2024/02/01 10:15:47;;;;;;;1.13;0.80;;;21.70;43.20;;;;;;5133455;28;20742;-33
2024/02/01 10:18:20;;;;;;;2.55;0.70;;;21.60;43.30;;;;;;5114247;27;20030;-32
2024/02/01 10:20:50;;;;;;;0.82;0.50;;;21.70;43.30;;;;;;5133452;28;22511;-34
2024/02/01 10:23:17;;;;;;;0.60;0.60;;;21.70;43.10;;;;;;5132530;28;20057;-35
2024/02/01 10:25:48;;;;;;;0.77;0.52;;;21.70;43.10;;;;;;5133923;27;20068;-33
2024/02/01 10:28:18;;;;;;;0.93;0.60;;;21.70;43.00;;;;;;5134057;27;20136;-30
2024/02/01 10:30:45;;;;;;;0.77;0.60;;;21.70;43.10;;;;;;5114857;28;20065;-33
2024/02/01 10:33:15;;;;;;;0.68;0.52;;;21.60;43.00;;;;;;5133592;27;20031;-32
2024/02/01 10:35:47;;;;;;;0.50;0.45;;;21.70;43.20;;;;;;5111337;28;20098;-35
2024/02/01 10:38:16;;;;;;;0.80;0.60;;;21.70;43.10;;;;;;5133763;27;20084;-32
2024/02/01 10:41:33;;;;;;;0.70;0.55;;;21.70;43.10;;;;;;5114740;28;20034;-31
2024/02/01 10:43:47;;;;;;;0.60;0.60;;;21.70;43.50;;;;;;5129272;28;20046;-38
2024/02/01 10:46:27;;;;;;;1.35;0.80;;;21.70;43.10;;;;;;5126664;28;20035;-34
2024/02/01 10:49:02;;;;;;;0.57;0.57;;;21.60;43.30;;;;;;5135016;27;20032;-35
2024/02/01 10:51:28;;;;;;;1.27;0.73;;;21.60;43.20;;;;;;5126480;27;20354;-37
2024/02/01 10:53:54;;;;;;;0.60;0.60;;;21.70;43.10;;;;;;5130996;28;20052;-32
2024/02/01 10:56:20;;;;;;;0.75;0.50;;;21.70;43.10;;;;;;5116362;27;20046;-33
2024/02/01 10:58:51;;;;;;;0.70;0.52;;;21.70;43.10;;;;;;5137920;27;20024;-36
2024/02/01 11:01:24;;;;;;;0.63;0.60;;;21.60;43.00;;;;;;5113960;27;20034;-36
2024/02/01 11:03:51;;;;;;;2.30;0.70;;;21.60;43.00;;;;;;5100340;27;20035;-37
2024/02/01 11:06:17;;;;;;;1.10;0.77;;;21.60;43.00;;;;;;5134796;27;20039;-35
2024/02/01 11:08:51;;;;;;;0.60;0.60;;;21.60;43.00;;;;;;5136553;27;20039;-34
2024/02/01 11:11:18;;;;;;;0.68;0.57;;;21.60;43.00;;;;;;5102332;27;20026;-34
2024/02/01 11:13:51;;;;;;;0.70;0.70;;;21.60;42.90;;;;;;5137637;27;20030;-33
2024/02/01 11:16:18;;;;;;;0.47;0.47;;;21.60;43.00;;;;;;5136306;27;20035;-32
2024/02/01 11:18:54;;;;;;;1.00;0.70;;;21.50;43.00;;;;;;5116323;27;20031;-33
2024/02/01 11:21:30;;;;;;;0.70;0.70;;;21.50;43.00;;;;;;5133725;27;20095;-34
2024/02/01 11:24:06;;;;;;;1.98;0.60;;;21.60;43.00;;;;;;5135509;27;20035;-32
2024/02/01 11:26:41;;;;;;;0.68;0.60;;;21.60;43.00;;;;;;5116549;27;20038;-35
2024/02/01 11:29:09;;;;;;;0.70;0.70;;;21.60;42.90;;;;;;5116334;27;20033;-36
2024/02/01 11:31:44;;;;;;;0.65;0.50;;;21.50;42.90;;;;;;5117884;27;20467;-34
2024/02/01 11:34:11;;;;;;;1.33;0.80;;;21.50;43.00;;;;;;5132207;27;20027;-36
2024/02/01 11:36:38;;;;;;;0.80;0.60;;;21.50;43.00;;;;;;5134436;27;20033;-31
2024/02/01 11:39:09;;;;;;;0.80;0.68;;;21.60;42.90;;;;;;5136440;27;20083;-32
2024/02/01 11:41:36;;;;;;;0.60;0.60;;;21.60;43.00;;;;;;5139439;27;20035;-32
2024/02/01 11:44:04;;;;;;;0.85;0.60;;;21.60;43.00;;;;;;5127373;27;20083;-35
2024/02/01 11:46:30;;;;;;;2.17;0.52;;;21.50;43.10;;;;;;5132194;27;20103;-34
2024/02/01 11:48:57;;;;;;;1.05;0.70;;;21.50;43.40;;;;;;5128659;27;20057;-33
2024/02/01 11:51:26;;;;;;;0.90;0.70;;;21.50;43.30;;;;;;5107436;27;20031;-34
2024/02/01 11:53:52;;;;;;;0.80;0.47;;;21.50;43.20;;;;;;5118083;27;20043;-30
2024/02/01 11:56:21;;;;;;;0.97;0.70;;;21.60;43.10;;;;;;5088326;28;20158;-35
2024/02/01 11:58:49;;;;;;;0.80;0.63;;;21.60;43.00;;;;;;5094797;27;20061;-36
2024/02/01 12:01:15;;;;;;;;;;;21.50;43.00;;;;;;5107017;27;20020;-30
2024/02/01 12:03:51;;;;;;;0.68;0.60;;;21.50;43.20;;;;;;5113288;27;19926;-35
2024/02/01 12:06:19;;;;;;;1.42;0.70;;;21.50;42.90;;;;;;5108738;27;20063;-34
2024/02/01 12:08:46;;;;;;;0.70;0.70;;;21.50;43.10;;;;;;5110218;27;20047;-30
2024/02/01 12:11:13;;;;;;;;;;;21.50;43.00;;;;;;5113637;27;20031;-31
2024/02/01 12:13:46;;;;;;;0.63;0.57;;;21.50;43.00;;;;;;5110617;27;19918;-31
2024/02/01 12:16:33;;;;;;;2.20;0.65;;;21.50;43.00;;;;;;5099276;28;20031;-32
2024/02/01 12:18:59;;;;;;;1.23;0.70;;;21.50;43.10;;;;;;5098264;27;20027;-32
2024/02/01 12:21:29;;;;;;;0.87;0.70;;;21.50;43.10;;;;;;5117522;27;20036;-33
2024/02/01 12:23:59;;;;;;;1.10;0.90;;;21.50;43.00;;;;;;5096235;27;20735;-34
2024/02/01 12:26:26;;;;;;;1.77;0.95;;;21.60;43.00;;;;;;5112558;28;20110;-34
2024/02/01 12:28:54;;;;;;;1.05;0.85;;;21.50;42.80;;;;;;5108653;27;20032;-35
2024/02/01 12:31:20;;;;;;;1.40;0.60;;;21.50;42.90;;;;;;5106850;27;20024;-31
2024/02/01 12:33:47;;;;;;;1.35;0.80;;;21.50;42.90;;;;;;5103338;27;20386;-34
2024/02/01 12:36:14;;;;;;;0.80;0.77;;;21.40;42.90;;;;;;5106602;28;20032;-34
2024/02/01 12:38:44;;;;;;;1.30;0.63;;;21.50;43.00;;;;;;5111887;28;20839;-37
2024/02/01 12:41:14;;;;;;;0.60;0.60;;;21.50;42.90;;;;;;5108782;28;20030;-32
2024/02/01 12:43:40;;;;;;;2.17;0.63;;;21.50;42.80;;;;;;5108807;28;20036;-33
2024/02/01 12:46:09;;;;;;;1.05;0.70;;;21.50;42.90;;;;;;5114242;27;20063;-34
2024/02/01 12:48:37;;;;;;;0.90;0.70;;;21.40;42.90;;;;;;5118195;27;20129;-32
2024/02/01 12:51:05;;;;;;;1.17;0.90;;;21.40;43.00;;;;;;5114370;27;20024;-32
2024/02/01 12:53:31;;;;;;;0.50;0.50;;;21.40;42.90;;;;;;5104782;27;20128;-31
2024/02/01 12:55:57;;;;;;;2.00;0.80;;;21.50;43.00;;;;;;5122981;27;20123;-32
2024/02/01 12:58:24;;;;;;;1.00;0.60;;;21.50;42.90;;;;;;5124451;27;20042;-37
2024/02/01 13:00:50;;;;;;;1.23;0.80;;;21.50;42.90;;;;;;5125004;27;20032;-37
2024/02/01 13:03:17;;;;;;;0.95;0.80;;;21.40;42.90;;;;;;5125117;27;20034;-36
2024/02/01 13:05:46;;;;;;;0.82;0.73;;;21.40;42.90;;;;;;5128283;27;20097;-33
2024/02/01 13:08:15;;;;;;;0.70;0.70;;;21.40;43.00;;;;;;5121602;27;20040;-35
2024/02/01 13:10:44;;;;;;;0.90;0.68;;;21.50;42.90;;;;;;5127717;27;20027;-33
2024/02/01 13:13:11;;;;;;;0.50;0.50;;;21.50;42.90;;;;;;5125177;27;20035;-34
2024/02/01 13:15:38;;;;;;;0.95;0.63;;;21.40;42.80;;;;;;5098103;27;20055;-33
2024/02/01 13:18:11;;;;;;;0.85;0.77;;;21.40;42.80;;;;;;5131877;27;20077;-33
2024/02/01 13:20:38;;;;;;;1.05;0.80;;;21.30;43.50;;;;;;5128899;27;20091;-31
2024/02/01 13:23:11;;;;;;;0.85;0.68;;;21.40;42.90;;;;;;5131368;27;20023;-37
2024/02/01 13:25:38;;;;;;;0.68;0.52;;;21.40;42.90;;;;;;5131771;27;22018;-34
2024/02/01 13:28:05;;;;;;;0.90;0.80;;;21.40;42.80;;;;;;5132793;27;20062;-37
2024/02/01 13:30:31;;;;;;;0.95;0.75;;;21.40;42.80;;;;;;5130368;27;20079;-33
2024/02/01 13:32:58;;;;;;;0.98;0.70;;;21.40;42.80;;;;;;5130551;27;20066;-33
2024/02/01 13:35:25;;;;;;;2.58;0.70;;;21.40;42.90;;;;;;5134708;27;20031;-35
2024/02/01 13:37:53;;;;;;;0.98;0.73;;;21.40;43.50;;;;;;5139621;27;20034;-34